sensor_id;sensor_type;location;lat;lon;timestamp;pressure;altitude;pressure_sealevel;temperature;humidity
82621;BME280;72291;55.002;-1.592;2023-11-21T00:02:22;100961.00;;;4.80;78.14
82621;BME280;72291;55.002;-1.592;2023-11-21T00:04:48;100964.31;;;5.70;77.81
82621;BME280;72291;55.002;-1.592;2023-11-21T00:07:16;100955.81;;;5.12;77.57
82621;BME280;72291;55.002;-1.592;2023-11-21T00:09:40;100947.78;;;5.36;76.70
82621;BME280;72291;55.002;-1.592;2023-11-21T00:12:03;100954.88;;;4.99;78.19
82621;BME280;72291;55.002;-1.592;2023-11-21T00:14:28;100957.20;;;4.55;79.99
82621;BME280;72291;55.002;-1.592;2023-11-21T00:16:53;100951.29;;;4.75;82.69
82621;BME280;72291;55.002;-1.592;2023-11-21T00:19:18;100951.76;;;4.58;82.57
82621;BME280;72291;55.002;-1.592;2023-11-21T00:21:43;100966.38;;;4.48;83.27
82621;BME280;72291;55.002;-1.592;2023-11-21T00:24:09;100966.19;;;4.24;84.27
82621;BME280;72291;55.002;-1.592;2023-11-21T00:26:34;100969.18;;;4.43;84.32
82621;BME280;72291;55.002;-1.592;2023-11-21T00:28:59;100967.56;;;4.35;83.68
82621;BME280;72291;55.002;-1.592;2023-11-21T00:31:24;100971.65;;;4.80;84.58
82621;BME280;72291;55.002;-1.592;2023-11-21T00:33:49;100980.54;;;4.57;84.71
82621;BME280;72291;55.002;-1.592;2023-11-21T00:36:14;100975.88;;;4.92;84.41
82621;BME280;72291;55.002;-1.592;2023-11-21T00:38:39;100986.36;;;4.84;83.65
82621;BME280;72291;55.002;-1.592;2023-11-21T00:41:05;100982.21;;;4.86;84.54
82621;BME280;72291;55.002;-1.592;2023-11-21T00:43:30;100992.26;;;4.69;85.47
82621;BME280;72291;55.002;-1.592;2023-11-21T00:45:55;100993.03;;;4.61;87.15
82621;BME280;72291;55.002;-1.592;2023-11-21T00:48:20;100993.96;;;4.89;85.22
82621;BME280;72291;55.002;-1.592;2023-11-21T00:50:45;100995.32;;;5.27;85.11
82621;BME280;72291;55.002;-1.592;2023-11-21T00:53:10;101007.64;;;4.91;83.53
82621;BME280;72291;55.002;-1.592;2023-11-21T00:55:35;101012.21;;;5.17;83.64
82621;BME280;72291;55.002;-1.592;2023-11-21T00:58:00;101014.18;;;5.17;84.42
82621;BME280;72291;55.002;-1.592;2023-11-21T01:00:25;101028.99;;;5.45;81.66
82621;BME280;72291;55.002;-1.592;2023-11-21T01:02:51;101032.41;;;4.94;83.06
82621;BME280;72291;55.002;-1.592;2023-11-21T01:05:16;101026.98;;;4.82;87.58
82621;BME280;72291;55.002;-1.592;2023-11-21T01:07:41;101034.42;;;4.66;86.58
82621;BME280;72291;55.002;-1.592;2023-11-21T01:10:07;101043.15;;;5.42;84.49
82621;BME280;72291;55.002;-1.592;2023-11-21T01:12:31;101043.66;;;4.89;85.80
82621;BME280;72291;55.002;-1.592;2023-11-21T01:14:56;101053.88;;;4.84;85.72
82621;BME280;72291;55.002;-1.592;2023-11-21T01:17:21;101058.97;;;5.28;82.78
82621;BME280;72291;55.002;-1.592;2023-11-21T01:19:47;101080.21;;;5.30;83.54
82621;BME280;72291;55.002;-1.592;2023-11-21T01:22:11;101074.43;;;5.50;81.72
82621;BME280;72291;55.002;-1.592;2023-11-21T01:24:37;101084.51;;;5.54;82.42
82621;BME280;72291;55.002;-1.592;2023-11-21T01:27:02;101088.41;;;5.75;80.37
82621;BME280;72291;55.002;-1.592;2023-11-21T01:29:27;101101.67;;;5.70;80.05
82621;BME280;72291;55.002;-1.592;2023-11-21T01:31:52;101108.32;;;5.49;81.48
82621;BME280;72291;55.002;-1.592;2023-11-21T01:34:17;101107.81;;;5.38;84.44
82621;BME280;72291;55.002;-1.592;2023-11-21T01:36:42;101105.49;;;5.17;84.27
82621;BME280;72291;55.002;-1.592;2023-11-21T01:39:07;101115.34;;;4.94;83.99
82621;BME280;72291;55.002;-1.592;2023-11-21T01:41:32;101120.35;;;5.20;82.79
82621;BME280;72291;55.002;-1.592;2023-11-21T01:43:58;101125.34;;;5.65;82.42
82621;BME280;72291;55.002;-1.592;2023-11-21T01:46:23;101125.55;;;5.19;82.35
82621;BME280;72291;55.002;-1.592;2023-11-21T01:48:49;101139.39;;;4.28;85.78
82621;BME280;72291;55.002;-1.592;2023-11-21T01:51:14;101143.72;;;4.41;86.08
82621;BME280;72291;55.002;-1.592;2023-11-21T01:53:39;101161.98;;;4.66;85.44
82621;BME280;72291;55.002;-1.592;2023-11-21T01:56:05;101164.06;;;4.43;85.60
82621;BME280;72291;55.002;-1.592;2023-11-21T01:58:31;101167.93;;;4.73;84.69
82621;BME280;72291;55.002;-1.592;2023-11-21T02:00:55;101177.32;;;4.89;83.86
82621;BME280;72291;55.002;-1.592;2023-11-21T02:03:20;101176.50;;;4.83;83.96
82621;BME280;72291;55.002;-1.592;2023-11-21T02:05:46;101172.72;;;4.81;83.50
82621;BME280;72291;55.002;-1.592;2023-11-21T02:08:11;101182.53;;;4.13;87.05
82621;BME280;72291;55.002;-1.592;2023-11-21T02:10:36;101183.32;;;4.24;85.43
82621;BME280;72291;55.002;-1.592;2023-11-21T02:13:01;101190.73;;;4.09;86.03
82621;BME280;72291;55.002;-1.592;2023-11-21T02:15:27;101197.95;;;4.90;82.65
82621;BME280;72291;55.002;-1.592;2023-11-21T02:17:52;101204.70;;;4.57;84.67
82621;BME280;72291;55.002;-1.592;2023-11-21T02:20:18;101198.41;;;4.53;83.68
82621;BME280;72291;55.002;-1.592;2023-11-21T02:22:43;101211.19;;;4.42;87.10
82621;BME280;72291;55.002;-1.592;2023-11-21T02:25:07;101218.68;;;4.34;87.27
82621;BME280;72291;55.002;-1.592;2023-11-21T02:27:32;101223.85;;;3.91;89.13
82621;BME280;72291;55.002;-1.592;2023-11-21T02:29:58;101224.01;;;4.67;86.48
82621;BME280;72291;55.002;-1.592;2023-11-21T02:32:23;101229.07;;;4.25;86.30
82621;BME280;72291;55.002;-1.592;2023-11-21T02:34:48;101233.63;;;3.88;87.78
82621;BME280;72291;55.002;-1.592;2023-11-21T02:37:13;101239.53;;;4.42;86.63
82621;BME280;72291;55.002;-1.592;2023-11-21T02:39:38;101231.34;;;4.47;85.40
82621;BME280;72291;55.002;-1.592;2023-11-21T02:42:04;101239.95;;;3.93;86.23
82621;BME280;72291;55.002;-1.592;2023-11-21T02:44:29;101231.33;;;4.22;85.64
82621;BME280;72291;55.002;-1.592;2023-11-21T02:46:53;101233.93;;;4.64;83.79
82621;BME280;72291;55.002;-1.592;2023-11-21T02:49:19;101231.92;;;4.71;82.78
82621;BME280;72291;55.002;-1.592;2023-11-21T02:51:44;101244.24;;;4.32;82.93
82621;BME280;72291;55.002;-1.592;2023-11-21T02:54:09;101256.87;;;4.13;82.29
82621;BME280;72291;55.002;-1.592;2023-11-21T02:56:34;101247.97;;;4.04;82.74
82621;BME280;72291;55.002;-1.592;2023-11-21T02:59:00;101257.67;;;4.71;80.19
82621;BME280;72291;55.002;-1.592;2023-11-21T03:01:24;101264.52;;;4.71;80.50
82621;BME280;72291;55.002;-1.592;2023-11-21T03:03:49;101266.91;;;4.24;82.74
82621;BME280;72291;55.002;-1.592;2023-11-21T03:06:15;101278.42;;;4.57;82.46
82621;BME280;72291;55.002;-1.592;2023-11-21T03:08:41;101280.80;;;4.71;80.43
82621;BME280;72291;55.002;-1.592;2023-11-21T03:11:06;101296.97;;;4.38;79.95
82621;BME280;72291;55.002;-1.592;2023-11-21T03:13:36;101294.62;;;5.34;76.40
82621;BME280;72291;55.002;-1.592;2023-11-21T03:15:57;101305.73;;;4.58;78.11
82621;BME280;72291;55.002;-1.592;2023-11-21T03:18:22;101323.49;;;5.01;76.79
82621;BME280;72291;55.002;-1.592;2023-11-21T03:20:47;101324.50;;;5.18;76.86
82621;BME280;72291;55.002;-1.592;2023-11-21T03:23:13;101328.83;;;4.86;77.64
82621;BME280;72291;55.002;-1.592;2023-11-21T03:25:38;101329.91;;;4.80;77.34
82621;BME280;72291;55.002;-1.592;2023-11-21T03:28:04;101330.74;;;4.25;78.62
82621;BME280;72291;55.002;-1.592;2023-11-21T03:30:29;101340.47;;;4.54;77.44
82621;BME280;72291;55.002;-1.592;2023-11-21T03:32:54;101336.28;;;4.43;78.04
82621;BME280;72291;55.002;-1.592;2023-11-21T03:35:20;101333.15;;;4.72;76.29
82621;BME280;72291;55.002;-1.592;2023-11-21T03:37:45;101345.56;;;4.05;78.11
82621;BME280;72291;55.002;-1.592;2023-11-21T03:40:11;101344.28;;;4.78;76.70
82621;BME280;72291;55.002;-1.592;2023-11-21T03:42:35;101352.56;;;5.16;76.20
82621;BME280;72291;55.002;-1.592;2023-11-21T03:45:01;101361.90;;;4.83;76.10
82621;BME280;72291;55.002;-1.592;2023-11-21T03:47:27;101367.25;;;5.01;75.94
82621;BME280;72291;55.002;-1.592;2023-11-21T03:49:51;101368.06;;;5.39;74.96
82621;BME280;72291;55.002;-1.592;2023-11-21T03:52:17;101370.17;;;4.95;76.18
82621;BME280;72291;55.002;-1.592;2023-11-21T03:54:42;101377.82;;;5.52;74.23
82621;BME280;72291;55.002;-1.592;2023-11-21T03:57:08;101380.06;;;5.89;72.34
82621;BME280;72291;55.002;-1.592;2023-11-21T03:59:33;101390.01;;;6.14;72.25
82621;BME280;72291;55.002;-1.592;2023-11-21T04:02:01;101392.83;;;5.89;73.54
82621;BME280;72291;55.002;-1.592;2023-11-21T04:04:27;101393.42;;;5.56;74.04
82621;BME280;72291;55.002;-1.592;2023-11-21T04:06:53;101400.36;;;5.21;75.35
82621;BME280;72291;55.002;-1.592;2023-11-21T04:09:14;101400.48;;;5.26;75.27
82621;BME280;72291;55.002;-1.592;2023-11-21T04:11:39;101401.58;;;5.37;74.23
82621;BME280;72291;55.002;-1.592;2023-11-21T04:18:54;101418.22;;;4.95;72.38
82621;BME280;72291;55.002;-1.592;2023-11-21T04:23:45;101425.92;;;4.47;73.54
82621;BME280;72291;55.002;-1.592;2023-11-21T04:26:10;101423.32;;;5.18;71.17
82621;BME280;72291;55.002;-1.592;2023-11-21T04:28:35;101427.49;;;6.04;69.85
82621;BME280;72291;55.002;-1.592;2023-11-21T04:31:00;101441.69;;;5.29;70.49
82621;BME280;72291;55.002;-1.592;2023-11-21T04:33:26;101444.25;;;5.32;71.20
82621;BME280;72291;55.002;-1.592;2023-11-21T04:35:51;101447.92;;;5.88;70.15
82621;BME280;72291;55.002;-1.592;2023-11-21T04:38:16;101447.95;;;6.08;68.05
82621;BME280;72291;55.002;-1.592;2023-11-21T04:40:41;101454.66;;;5.77;67.95
82621;BME280;72291;55.002;-1.592;2023-11-21T04:43:06;101468.32;;;5.62;68.34
82621;BME280;72291;55.002;-1.592;2023-11-21T04:45:31;101471.90;;;5.95;66.66
82621;BME280;72291;55.002;-1.592;2023-11-21T04:48:02;101482.24;;;5.80;68.36
82621;BME280;72291;55.002;-1.592;2023-11-21T04:50:21;101490.09;;;4.96;69.13
82621;BME280;72291;55.002;-1.592;2023-11-21T04:52:47;101496.30;;;5.54;68.06
82621;BME280;72291;55.002;-1.592;2023-11-21T04:55:12;101498.50;;;5.88;66.91
82621;BME280;72291;55.002;-1.592;2023-11-21T04:57:37;101507.90;;;5.64;65.91
82621;BME280;72291;55.002;-1.592;2023-11-21T05:00:02;101516.85;;;5.86;65.92
82621;BME280;72291;55.002;-1.592;2023-11-21T05:02:27;101525.35;;;5.78;65.09
82621;BME280;72291;55.002;-1.592;2023-11-21T05:04:52;101533.44;;;6.06;64.48
82621;BME280;72291;55.002;-1.592;2023-11-21T05:07:18;101541.46;;;5.50;66.94
82621;BME280;72291;55.002;-1.592;2023-11-21T05:09:43;101552.49;;;6.10;65.30
82621;BME280;72291;55.002;-1.592;2023-11-21T05:12:08;101547.17;;;7.34;62.08
82621;BME280;72291;55.002;-1.592;2023-11-21T05:14:33;101554.33;;;6.63;63.20
82621;BME280;72291;55.002;-1.592;2023-11-21T05:16:58;101562.17;;;6.29;64.26
82621;BME280;72291;55.002;-1.592;2023-11-21T05:19:23;101566.04;;;6.02;64.83
82621;BME280;72291;55.002;-1.592;2023-11-21T05:21:48;101569.32;;;7.05;62.50
82621;BME280;72291;55.002;-1.592;2023-11-21T05:24:13;101575.58;;;5.91;64.93
82621;BME280;72291;55.002;-1.592;2023-11-21T05:26:39;101578.26;;;6.63;63.53
82621;BME280;72291;55.002;-1.592;2023-11-21T05:29:05;101586.56;;;5.59;64.32
82621;BME280;72291;55.002;-1.592;2023-11-21T05:31:29;101598.56;;;5.25;65.39
82621;BME280;72291;55.002;-1.592;2023-11-21T05:33:55;101596.65;;;5.26;66.45
82621;BME280;72291;55.002;-1.592;2023-11-21T05:36:21;101606.39;;;5.17;66.61
82621;BME280;72291;55.002;-1.592;2023-11-21T05:38:46;101607.56;;;5.38;66.27
82621;BME280;72291;55.002;-1.592;2023-11-21T05:41:12;101615.11;;;5.48;65.55
82621;BME280;72291;55.002;-1.592;2023-11-21T05:43:37;101614.81;;;5.25;66.06
82621;BME280;72291;55.002;-1.592;2023-11-21T05:46:02;101617.78;;;4.98;66.95
82621;BME280;72291;55.002;-1.592;2023-11-21T05:48:27;101622.78;;;5.36;66.44
82621;BME280;72291;55.002;-1.592;2023-11-21T05:50:52;101630.74;;;5.01;68.07
82621;BME280;72291;55.002;-1.592;2023-11-21T05:53:18;101635.13;;;5.35;66.64
82621;BME280;72291;55.002;-1.592;2023-11-21T05:55:43;101639.57;;;5.65;66.51
82621;BME280;72291;55.002;-1.592;2023-11-21T05:58:08;101648.11;;;4.85;67.39
82621;BME280;72291;55.002;-1.592;2023-11-21T06:00:33;101641.55;;;6.38;63.84
82621;BME280;72291;55.002;-1.592;2023-11-21T06:02:58;101647.37;;;5.98;63.77
82621;BME280;72291;55.002;-1.592;2023-11-21T06:05:25;101662.15;;;5.36;64.56
82621;BME280;72291;55.002;-1.592;2023-11-21T06:07:49;101664.95;;;6.52;61.76
82621;BME280;72291;55.002;-1.592;2023-11-21T06:10:14;101659.93;;;7.90;58.59
82621;BME280;72291;55.002;-1.592;2023-11-21T06:12:40;101661.15;;;8.39;56.62
82621;BME280;72291;55.002;-1.592;2023-11-21T06:15:05;101667.99;;;6.56;61.21
82621;BME280;72291;55.002;-1.592;2023-11-21T06:17:29;101676.35;;;6.60;61.70
82621;BME280;72291;55.002;-1.592;2023-11-21T06:19:54;101681.26;;;5.67;63.29
82621;BME280;72291;55.002;-1.592;2023-11-21T06:22:19;101680.97;;;5.80;62.63
82621;BME280;72291;55.002;-1.592;2023-11-21T06:24:44;101680.39;;;6.00;62.82
82621;BME280;72291;55.002;-1.592;2023-11-21T06:27:09;101682.26;;;6.22;62.93
82621;BME280;72291;55.002;-1.592;2023-11-21T06:29:34;101692.05;;;6.10;62.80
82621;BME280;72291;55.002;-1.592;2023-11-21T06:31:59;101697.11;;;5.94;62.92
82621;BME280;72291;55.002;-1.592;2023-11-21T06:34:25;101701.64;;;5.59;63.50
82621;BME280;72291;55.002;-1.592;2023-11-21T06:36:50;101706.03;;;6.12;62.50
82621;BME280;72291;55.002;-1.592;2023-11-21T06:39:15;101711.68;;;5.08;64.39
82621;BME280;72291;55.002;-1.592;2023-11-21T06:41:40;101710.40;;;6.30;62.38
82621;BME280;72291;55.002;-1.592;2023-11-21T06:44:05;101704.20;;;6.22;62.53
82621;BME280;72291;55.002;-1.592;2023-11-21T06:46:30;101711.84;;;6.02;62.96
82621;BME280;72291;55.002;-1.592;2023-11-21T06:48:55;101705.70;;;6.91;61.44
82621;BME280;72291;55.002;-1.592;2023-11-21T06:51:20;101705.10;;;6.21;61.79
82621;BME280;72291;55.002;-1.592;2023-11-21T06:53:45;101706.48;;;6.57;60.16
82621;BME280;72291;55.002;-1.592;2023-11-21T06:56:16;101714.13;;;7.11;60.08
82621;BME280;72291;55.002;-1.592;2023-11-21T06:58:36;101732.84;;;6.57;63.87
82621;BME280;72291;55.002;-1.592;2023-11-21T07:01:01;101753.78;;;4.86;71.01
82621;BME280;72291;55.002;-1.592;2023-11-21T07:03:27;101750.02;;;4.26;75.15
82621;BME280;72291;55.002;-1.592;2023-11-21T07:05:52;101751.73;;;4.55;75.24
82621;BME280;72291;55.002;-1.592;2023-11-21T07:08:17;101762.37;;;4.65;76.34
82621;BME280;72291;55.002;-1.592;2023-11-21T07:10:42;101769.90;;;4.95;75.05
82621;BME280;72291;55.002;-1.592;2023-11-21T07:13:07;101768.18;;;4.97;74.55
82621;BME280;72291;55.002;-1.592;2023-11-21T07:15:32;101772.97;;;6.37;69.78
82621;BME280;72291;55.002;-1.592;2023-11-21T07:17:57;101771.41;;;7.33;67.07
82621;BME280;72291;55.002;-1.592;2023-11-21T07:20:22;101770.93;;;7.41;66.57
82621;BME280;72291;55.002;-1.592;2023-11-21T07:22:48;101781.14;;;6.46;67.62
82621;BME280;72291;55.002;-1.592;2023-11-21T07:25:13;101783.52;;;6.73;68.39
82621;BME280;72291;55.002;-1.592;2023-11-21T07:27:38;101781.63;;;7.67;65.27
82621;BME280;72291;55.002;-1.592;2023-11-21T07:30:04;101788.44;;;6.67;67.29
82621;BME280;72291;55.002;-1.592;2023-11-21T07:32:28;101783.08;;;6.78;65.87
82621;BME280;72291;55.002;-1.592;2023-11-21T07:34:54;101790.60;;;5.97;68.27
82621;BME280;72291;55.002;-1.592;2023-11-21T07:37:19;101801.58;;;6.00;68.70
82621;BME280;72291;55.002;-1.592;2023-11-21T07:39:44;101801.45;;;6.57;67.40
82621;BME280;72291;55.002;-1.592;2023-11-21T07:42:09;101803.38;;;6.67;65.47
82621;BME280;72291;55.002;-1.592;2023-11-21T07:44:34;101803.85;;;7.07;64.91
82621;BME280;72291;55.002;-1.592;2023-11-21T07:46:59;101805.54;;;7.52;63.39
82621;BME280;72291;55.002;-1.592;2023-11-21T07:49:25;101812.26;;;6.82;63.57
82621;BME280;72291;55.002;-1.592;2023-11-21T07:51:50;101821.76;;;6.99;62.86
82621;BME280;72291;55.002;-1.592;2023-11-21T07:54:16;101825.57;;;7.68;61.90
82621;BME280;72291;55.002;-1.592;2023-11-21T07:56:41;101826.19;;;7.17;64.02
82621;BME280;72291;55.002;-1.592;2023-11-21T07:59:06;101825.10;;;7.58;62.52
82621;BME280;72291;55.002;-1.592;2023-11-21T08:01:31;101828.77;;;7.48;61.28
82621;BME280;72291;55.002;-1.592;2023-11-21T08:03:57;101829.03;;;8.29;59.84
82621;BME280;72291;55.002;-1.592;2023-11-21T08:06:22;101837.32;;;8.40;60.47
82621;BME280;72291;55.002;-1.592;2023-11-21T08:08:47;101842.95;;;7.99;59.93
82621;BME280;72291;55.002;-1.592;2023-11-21T08:11:12;101849.29;;;7.01;61.69
82621;BME280;72291;55.002;-1.592;2023-11-21T08:13:39;101858.69;;;6.62;63.09
82621;BME280;72291;55.002;-1.592;2023-11-21T08:16:05;101866.77;;;7.03;63.95
82621;BME280;72291;55.002;-1.592;2023-11-21T08:18:29;101863.77;;;7.33;63.20
82621;BME280;72291;55.002;-1.592;2023-11-21T08:20:54;101858.50;;;7.37;63.10
82621;BME280;72291;55.002;-1.592;2023-11-21T08:23:19;101850.73;;;8.11;60.71
82621;BME280;72291;55.002;-1.592;2023-11-21T08:25:45;101849.42;;;8.57;59.49
82621;BME280;72291;55.002;-1.592;2023-11-21T08:28:09;101849.99;;;8.40;59.07
82621;BME280;72291;55.002;-1.592;2023-11-21T08:30:34;101851.05;;;8.66;58.93
82621;BME280;72291;55.002;-1.592;2023-11-21T08:33:00;101855.19;;;9.23;57.67
82621;BME280;72291;55.002;-1.592;2023-11-21T08:35:25;101874.43;;;7.84;60.48
82621;BME280;72291;55.002;-1.592;2023-11-21T08:37:51;101881.83;;;7.56;62.13
82621;BME280;72291;55.002;-1.592;2023-11-21T08:40:15;101891.19;;;7.18;64.86
82621;BME280;72291;55.002;-1.592;2023-11-21T08:42:41;101902.39;;;6.03;69.49
82621;BME280;72291;55.002;-1.592;2023-11-21T08:45:07;101904.97;;;5.48;71.37
82621;BME280;72291;55.002;-1.592;2023-11-21T08:47:31;101903.32;;;6.14;68.52
82621;BME280;72291;55.002;-1.592;2023-11-21T08:49:56;101899.36;;;6.54;67.22
82621;BME280;72291;55.002;-1.592;2023-11-21T08:52:25;101897.02;;;5.00;70.22
82621;BME280;72291;55.002;-1.592;2023-11-21T08:54:48;101897.83;;;5.30;70.46
82621;BME280;72291;55.002;-1.592;2023-11-21T08:57:20;101898.75;;;5.26;69.87
82621;BME280;72291;55.002;-1.592;2023-11-21T09:02:02;101900.20;;;5.36;70.75
82621;BME280;72291;55.002;-1.592;2023-11-21T09:04:27;101900.12;;;4.82;71.94
82621;BME280;72291;55.002;-1.592;2023-11-21T09:06:57;101902.63;;;5.14;72.28
82621;BME280;72291;55.002;-1.592;2023-11-21T09:11:42;101890.37;;;6.54;67.24
82621;BME280;72291;55.002;-1.592;2023-11-21T09:21:24;101921.82;;;4.88;71.45
82621;BME280;72291;55.002;-1.592;2023-11-21T09:23:48;101927.90;;;5.94;68.66
82621;BME280;72291;55.002;-1.592;2023-11-21T09:26:14;101930.59;;;5.82;67.97
82621;BME280;72291;55.002;-1.592;2023-11-21T09:28:39;101938.22;;;5.93;67.57
82621;BME280;72291;55.002;-1.592;2023-11-21T09:31:04;101939.44;;;6.44;66.23
82621;BME280;72291;55.002;-1.592;2023-11-21T09:33:29;101938.80;;;5.43;68.92
82621;BME280;72291;55.002;-1.592;2023-11-21T09:35:54;101937.63;;;5.72;67.68
82621;BME280;72291;55.002;-1.592;2023-11-21T09:38:19;101937.42;;;6.28;66.39
82621;BME280;72291;55.002;-1.592;2023-11-21T09:40:45;101942.54;;;6.54;65.36
82621;BME280;72291;55.002;-1.592;2023-11-21T09:43:16;101946.49;;;6.16;65.66
82621;BME280;72291;55.002;-1.592;2023-11-21T09:45:36;101955.76;;;5.42;68.29
82621;BME280;72291;55.002;-1.592;2023-11-21T09:48:01;101953.24;;;6.73;65.45
82621;BME280;72291;55.002;-1.592;2023-11-21T09:50:26;101951.86;;;7.14;64.92
82621;BME280;72291;55.002;-1.592;2023-11-21T09:52:57;101945.03;;;7.60;62.88
82621;BME280;72291;55.002;-1.592;2023-11-21T09:55:18;101945.01;;;7.45;62.35
82621;BME280;72291;55.002;-1.592;2023-11-21T09:57:43;101948.98;;;6.86;63.10
82621;BME280;72291;55.002;-1.592;2023-11-21T10:00:09;101951.54;;;6.42;65.56
82621;BME280;72291;55.002;-1.592;2023-11-21T10:02:33;101956.16;;;5.45;66.61
82621;BME280;72291;55.002;-1.592;2023-11-21T10:04:58;101969.15;;;5.64;67.06
82621;BME280;72291;55.002;-1.592;2023-11-21T10:07:23;101982.18;;;5.54;67.96
82621;BME280;72291;55.002;-1.592;2023-11-21T10:09:51;101988.42;;;6.78;65.45
82621;BME280;72291;55.002;-1.592;2023-11-21T10:12:15;101987.33;;;6.92;64.42
82621;BME280;72291;55.002;-1.592;2023-11-21T10:14:41;101985.66;;;5.89;64.90
82621;BME280;72291;55.002;-1.592;2023-11-21T10:17:04;101988.51;;;5.15;68.83
82621;BME280;72291;55.002;-1.592;2023-11-21T10:19:29;101999.05;;;4.01;71.27
82621;BME280;72291;55.002;-1.592;2023-11-21T10:21:55;102003.28;;;4.66;70.70
82621;BME280;72291;55.002;-1.592;2023-11-21T10:24:19;102003.56;;;4.33;70.32
82621;BME280;72291;55.002;-1.592;2023-11-21T10:26:44;102005.65;;;4.62;70.66
82621;BME280;72291;55.002;-1.592;2023-11-21T10:29:09;102003.13;;;4.97;69.86
82621;BME280;72291;55.002;-1.592;2023-11-21T10:31:34;102006.17;;;5.39;67.23
82621;BME280;72291;55.002;-1.592;2023-11-21T10:34:13;102008.71;;;5.71;66.92
82621;BME280;72291;55.002;-1.592;2023-11-21T10:36:26;102004.17;;;6.30;64.84
82621;BME280;72291;55.002;-1.592;2023-11-21T10:38:51;102008.39;;;6.62;64.14
82621;BME280;72291;55.002;-1.592;2023-11-21T10:41:18;102010.03;;;7.27;62.01
82621;BME280;72291;55.002;-1.592;2023-11-21T10:43:43;102018.91;;;5.80;64.98
82621;BME280;72291;55.002;-1.592;2023-11-21T10:46:07;102014.55;;;5.41;66.02
82621;BME280;72291;55.002;-1.592;2023-11-21T10:48:32;102010.71;;;6.01;65.13
82621;BME280;72291;55.002;-1.592;2023-11-21T10:50:57;102011.25;;;6.62;62.84
82621;BME280;72291;55.002;-1.592;2023-11-21T10:53:22;102020.31;;;5.46;64.72
82621;BME280;72291;55.002;-1.592;2023-11-21T10:55:47;102015.41;;;6.62;61.46
82621;BME280;72291;55.002;-1.592;2023-11-21T10:58:14;102017.05;;;7.38;59.73
82621;BME280;72291;55.002;-1.592;2023-11-21T11:00:38;102015.61;;;7.49;59.15
82621;BME280;72291;55.002;-1.592;2023-11-21T11:03:04;102011.97;;;6.91;60.16
82621;BME280;72291;55.002;-1.592;2023-11-21T11:05:29;102010.82;;;6.98;61.25
82621;BME280;72291;55.002;-1.592;2023-11-21T11:07:58;102008.62;;;8.00;59.85
82621;BME280;72291;55.002;-1.592;2023-11-21T11:10:20;101997.35;;;7.59;58.55
82621;BME280;72291;55.002;-1.592;2023-11-21T11:12:46;101990.54;;;8.98;55.98
82621;BME280;72291;55.002;-1.592;2023-11-21T11:15:10;101995.73;;;7.73;57.72
82621;BME280;72291;55.002;-1.592;2023-11-21T11:17:35;101991.21;;;8.06;56.94
82621;BME280;72291;55.002;-1.592;2023-11-21T11:20:01;101984.46;;;9.14;55.16
82621;BME280;72291;55.002;-1.592;2023-11-21T11:22:34;101978.53;;;9.40;54.57
82621;BME280;72291;55.002;-1.592;2023-11-21T11:27:23;101980.34;;;8.60;56.44
82621;BME280;72291;55.002;-1.592;2023-11-21T11:29:47;101984.28;;;8.74;57.33
82621;BME280;72291;55.002;-1.592;2023-11-21T11:32:13;101976.70;;;9.74;53.75
82621;BME280;72291;55.002;-1.592;2023-11-21T11:34:34;101971.54;;;9.13;55.06
82621;BME280;72291;55.002;-1.592;2023-11-21T11:37:00;101970.51;;;8.77;55.99
82621;BME280;72291;55.002;-1.592;2023-11-21T11:39:28;101970.45;;;9.44;54.06
82621;BME280;72291;55.002;-1.592;2023-11-21T11:41:47;101968.27;;;9.31;54.72
82621;BME280;72291;55.002;-1.592;2023-11-21T11:46:43;101965.14;;;7.90;58.43
82621;BME280;72291;55.002;-1.592;2023-11-21T11:49:03;101968.98;;;7.84;57.70
82621;BME280;72291;55.002;-1.592;2023-11-21T11:51:27;101969.57;;;6.85;59.65
82621;BME280;72291;55.002;-1.592;2023-11-21T11:53:52;101953.96;;;8.54;57.60
82621;BME280;72291;55.002;-1.592;2023-11-21T11:56:26;101954.36;;;8.97;56.42
82621;BME280;72291;55.002;-1.592;2023-11-21T11:58:43;101967.89;;;7.24;58.67
82621;BME280;72291;55.002;-1.592;2023-11-21T12:01:07;101972.28;;;6.23;59.51
82621;BME280;72291;55.002;-1.592;2023-11-21T12:03:32;101975.50;;;6.59;60.05
82621;BME280;72291;55.002;-1.592;2023-11-21T12:05:57;101980.26;;;7.32;58.16
82621;BME280;72291;55.002;-1.592;2023-11-21T12:08:23;101981.07;;;6.21;59.36
82621;BME280;72291;55.002;-1.592;2023-11-21T12:10:48;101981.19;;;6.24;60.55
82621;BME280;72291;55.002;-1.592;2023-11-21T12:13:13;101975.93;;;6.55;59.50
82621;BME280;72291;55.002;-1.592;2023-11-21T12:15:38;101976.32;;;6.85;59.26
82621;BME280;72291;55.002;-1.592;2023-11-21T12:18:03;101982.65;;;5.80;60.76
82621;BME280;72291;55.002;-1.592;2023-11-21T12:20:29;101980.75;;;6.35;58.93
82621;BME280;72291;55.002;-1.592;2023-11-21T12:22:55;101975.20;;;6.55;60.45
82621;BME280;72291;55.002;-1.592;2023-11-21T12:25:21;101975.70;;;5.59;62.43
82621;BME280;72291;55.002;-1.592;2023-11-21T12:27:44;101971.64;;;6.11;62.15
82621;BME280;72291;55.002;-1.592;2023-11-21T12:30:10;101969.22;;;6.24;61.41
82621;BME280;72291;55.002;-1.592;2023-11-21T12:32:34;101973.40;;;6.53;60.61
82621;BME280;72291;55.002;-1.592;2023-11-21T12:34:59;101975.73;;;6.17;60.92
82621;BME280;72291;55.002;-1.592;2023-11-21T12:37:24;101975.08;;;7.26;58.92
82621;BME280;72291;55.002;-1.592;2023-11-21T12:39:49;101981.25;;;6.03;59.46
82621;BME280;72291;55.002;-1.592;2023-11-21T12:42:14;101984.81;;;5.87;60.91
82621;BME280;72291;55.002;-1.592;2023-11-21T12:44:39;101981.00;;;6.48;59.89
82621;BME280;72291;55.002;-1.592;2023-11-21T12:47:05;101983.68;;;6.06;60.64
82621;BME280;72291;55.002;-1.592;2023-11-21T12:49:30;101988.19;;;6.57;60.60
82621;BME280;72291;55.002;-1.592;2023-11-21T12:51:55;101995.12;;;6.92;58.98
82621;BME280;72291;55.002;-1.592;2023-11-21T12:54:20;102000.19;;;6.40;60.07
82621;BME280;72291;55.002;-1.592;2023-11-21T12:56:46;102002.82;;;6.78;59.10
82621;BME280;72291;55.002;-1.592;2023-11-21T12:59:10;102000.72;;;7.93;55.85
82621;BME280;72291;55.002;-1.592;2023-11-21T13:01:36;102006.17;;;6.96;57.26
82621;BME280;72291;55.002;-1.592;2023-11-21T13:04:01;102014.38;;;7.06;57.19